createdAt,value
2023-05-16T00:00:33.908Z,9.87
2023-05-16T00:03:01.135Z,10.00
2023-05-16T00:05:28.229Z,11.30
2023-05-16T00:07:55.238Z,14.40
2023-05-16T00:10:22.271Z,14.23
2023-05-16T00:12:49.270Z,14.00
2023-05-16T00:15:18.090Z,14.27
2023-05-16T00:17:45.152Z,18.60
2023-05-16T00:20:12.794Z,21.70
2023-05-16T00:22:39.826Z,18.40
2023-05-16T00:25:07.507Z,16.67
2023-05-16T00:27:34.663Z,12.63
2023-05-16T00:30:01.792Z,12.93
2023-05-16T00:32:30.215Z,11.93
2023-05-16T00:34:57.283Z,13.97
2023-05-16T00:37:24.318Z,13.70
2023-05-16T00:39:51.372Z,15.00
2023-05-16T00:42:19.853Z,16.30
2023-05-16T00:44:47.064Z,19.17
2023-05-16T00:47:16.017Z,19.37
2023-05-16T00:49:44.524Z,18.93
2023-05-16T00:52:11.667Z,16.77
2023-05-16T00:54:40.278Z,18.17
2023-05-16T00:57:07.493Z,14.73
2023-05-16T00:59:34.874Z,14.80
2023-05-16T01:02:02.582Z,12.13
2023-05-16T01:04:29.849Z,12.90
2023-05-16T01:06:58.871Z,12.40
2023-05-16T01:09:26.076Z,14.63
2023-05-16T01:11:56.711Z,12.60
2023-05-16T01:14:27.969Z,12.73
2023-05-16T01:17:00.211Z,13.40
2023-05-16T01:19:33.165Z,15.40
2023-05-16T01:22:03.833Z,14.80
2023-05-16T01:24:34.246Z,13.87
2023-05-16T01:27:04.024Z,14.13
2023-05-16T01:29:31.258Z,14.77
2023-05-16T01:31:58.607Z,14.83
2023-05-16T01:34:25.828Z,13.70
2023-05-16T01:37:01.205Z,14.07
2023-05-16T01:39:32.456Z,12.87
2023-05-16T01:42:01.929Z,14.17
2023-05-16T01:44:32.584Z,13.37
2023-05-16T01:47:02.204Z,13.60
2023-05-16T01:49:32.275Z,12.20
2023-05-16T01:52:01.649Z,9.43
2023-05-16T01:54:32.571Z,7.93
2023-05-16T01:57:01.195Z,7.90
2023-05-16T01:59:29.002Z,6.80
2023-05-16T02:01:58.733Z,7.60
2023-05-16T02:04:25.822Z,7.37
2023-05-16T02:06:53.007Z,6.97
2023-05-16T02:09:20.072Z,5.93
2023-05-16T02:11:47.201Z,5.93
2023-05-16T02:14:14.298Z,6.90
2023-05-16T02:16:41.463Z,6.83
2023-05-16T02:19:09.955Z,5.53
2023-05-16T02:21:39.122Z,5.83
2023-05-16T02:24:06.363Z,5.57
2023-05-16T02:26:33.414Z,4.83
2023-05-16T02:29:00.914Z,5.97
2023-05-16T02:31:28.515Z,6.93
2023-05-16T02:33:55.647Z,6.93
2023-05-16T02:36:24.134Z,8.10
2023-05-16T02:38:51.284Z,6.17
2023-05-16T02:41:18.328Z,6.53
2023-05-16T02:43:47.009Z,9.23
2023-05-16T02:46:21.158Z,8.27
2023-05-16T02:48:48.277Z,8.80
2023-05-16T02:51:15.294Z,7.30
2023-05-16T02:53:43.742Z,6.47
2023-05-16T02:56:10.975Z,6.83
2023-05-16T02:58:38.051Z,6.63
2023-05-16T03:01:06.662Z,8.50
2023-05-16T03:03:33.885Z,7.63
2023-05-16T03:06:01.094Z,8.10
2023-05-16T03:08:28.187Z,7.80
2023-05-16T03:10:59.384Z,7.60
2023-05-16T03:13:26.450Z,7.57
2023-05-16T03:15:53.587Z,8.23
2023-05-16T03:18:20.700Z,8.20
2023-05-16T03:20:47.851Z,8.03
2023-05-16T03:23:14.947Z,7.60
2023-05-16T03:25:42.075Z,7.77
2023-05-16T03:28:10.749Z,7.23
2023-05-16T03:30:37.807Z,7.30
2023-05-16T03:33:04.981Z,6.90
2023-05-16T03:35:32.477Z,8.23
2023-05-16T03:37:59.610Z,8.47
2023-05-16T03:40:26.691Z,8.77
2023-05-16T03:42:53.818Z,7.30
2023-05-16T03:45:22.239Z,8.47
2023-05-16T03:47:49.427Z,8.43
2023-05-16T03:50:16.692Z,8.43
2023-05-16T03:52:43.930Z,7.90
2023-05-16T03:55:10.975Z,7.33
2023-05-16T03:57:38.187Z,6.87
2023-05-16T04:00:05.896Z,8.30
2023-05-16T04:02:40.224Z,6.43
2023-05-16T04:05:08.413Z,7.27
2023-05-16T04:07:35.576Z,7.13
2023-05-16T04:10:02.701Z,5.57
2023-05-16T04:12:29.795Z,6.03
2023-05-16T04:14:57.038Z,4.90
2023-05-16T04:17:24.231Z,6.10
2023-05-16T04:19:52.741Z,5.27
2023-05-16T04:22:21.698Z,4.40
2023-05-16T04:24:48.755Z,4.77
2023-05-16T04:27:15.803Z,5.13
2023-05-16T04:29:43.009Z,5.20
2023-05-16T04:32:10.062Z,4.90
2023-05-16T04:34:39.176Z,4.10
2023-05-16T04:37:08.840Z,4.83
2023-05-16T04:39:35.996Z,5.73
2023-05-16T04:42:03.067Z,5.80
2023-05-16T04:44:30.244Z,5.70
2023-05-16T04:46:57.317Z,5.47
2023-05-16T04:49:24.462Z,5.90
2023-05-16T04:51:51.560Z,5.73
2023-05-16T04:54:19.961Z,5.70
2023-05-16T04:56:47.035Z,3.90
2023-05-16T04:59:14.040Z,5.10
2023-05-16T05:01:41.171Z,5.10
2023-05-16T05:04:08.272Z,6.73
2023-05-16T05:06:35.332Z,4.80
2023-05-16T05:09:02.362Z,4.10
2023-05-16T05:11:30.783Z,4.20
2023-05-16T05:13:57.904Z,3.80
2023-05-16T05:16:25.152Z,4.03
2023-05-16T05:18:52.371Z,4.53
2023-05-16T05:21:19.606Z,4.57
2023-05-16T05:23:46.676Z,3.80
2023-05-16T05:26:13.758Z,5.20
2023-05-16T05:28:47.807Z,4.40
2023-05-16T05:31:17.990Z,4.20
2023-05-16T05:33:45.128Z,4.77
2023-05-16T05:36:12.260Z,3.30
2023-05-16T05:38:39.315Z,3.90
2023-05-16T05:41:06.382Z,3.90
2023-05-16T05:43:33.491Z,4.43
2023-05-16T05:46:01.956Z,4.50
2023-05-16T05:48:29.242Z,4.27
2023-05-16T05:50:56.378Z,3.83
2023-05-16T05:53:23.481Z,4.33
2023-05-16T05:55:50.542Z,3.53
2023-05-16T05:58:17.682Z,4.37
2023-05-16T06:00:44.779Z,5.30
2023-05-16T06:03:13.260Z,3.70
2023-05-16T06:05:40.383Z,3.50
2023-05-16T06:08:07.404Z,4.07
2023-05-16T06:10:34.518Z,3.70
2023-05-16T06:13:01.538Z,3.90
2023-05-16T06:15:29.010Z,3.83
2023-05-16T06:17:56.308Z,2.90
2023-05-16T06:20:24.755Z,3.10
2023-05-16T06:22:51.840Z,3.13
2023-05-16T06:25:18.975Z,3.40
2023-05-16T06:27:46.097Z,3.63
2023-05-16T06:30:13.377Z,3.73
2023-05-16T06:32:40.437Z,3.70
2023-05-16T06:35:07.758Z,3.30
2023-05-16T06:37:36.181Z,3.20
2023-05-16T06:40:03.270Z,3.00
2023-05-16T06:42:30.403Z,3.00
2023-05-16T06:44:57.522Z,3.20
2023-05-16T06:47:24.726Z,2.40
2023-05-16T06:49:51.937Z,3.10
2023-05-16T06:52:19.063Z,3.40
2023-05-16T06:54:47.615Z,4.17
2023-05-16T06:57:14.755Z,2.90
2023-05-16T06:59:41.936Z,3.00
2023-05-16T07:02:09.032Z,2.70
2023-05-16T07:04:36.188Z,2.80
2023-05-16T07:07:03.385Z,3.03
2023-05-16T07:09:30.453Z,3.40
2023-05-16T07:11:58.914Z,2.60
2023-05-16T07:14:26.029Z,2.30
2023-05-16T07:16:53.219Z,2.60
2023-05-16T07:19:20.449Z,2.07
2023-05-16T07:21:47.701Z,2.57
2023-05-16T07:24:14.773Z,2.50
2023-05-16T07:26:41.902Z,3.07
2023-05-16T07:29:10.327Z,2.90
2023-05-16T07:31:37.526Z,2.40
2023-05-16T07:34:04.722Z,5.30
2023-05-16T07:36:32.209Z,4.07
2023-05-16T07:38:59.370Z,3.67
2023-05-16T07:41:26.541Z,3.23
2023-05-16T07:43:53.706Z,3.90
2023-05-16T07:46:22.204Z,3.77
2023-05-16T07:48:49.436Z,3.97
2023-05-16T07:51:16.498Z,3.63
2023-05-16T07:53:43.605Z,3.57
2023-05-16T07:56:10.865Z,4.17
2023-05-16T07:58:38.489Z,3.13
2023-05-16T08:01:05.623Z,3.43
2023-05-16T08:03:34.445Z,3.40
2023-05-16T08:06:01.787Z,3.30
2023-05-16T08:08:29.071Z,2.60
2023-05-16T08:10:56.587Z,3.10
2023-05-16T08:13:23.696Z,2.70
2023-05-16T08:15:50.933Z,3.77
2023-05-16T08:18:20.053Z,2.73
2023-05-16T08:20:50.758Z,2.70
2023-05-16T08:23:17.846Z,2.70
2023-05-16T08:25:45.218Z,3.53
2023-05-16T08:28:12.377Z,3.60
2023-05-16T08:30:41.860Z,2.57
2023-05-16T08:33:09.916Z,2.80
2023-05-16T08:35:37.023Z,2.43
2023-05-16T08:38:05.407Z,3.43
2023-05-16T08:40:32.543Z,4.00
2023-05-16T08:42:59.646Z,3.00
2023-05-16T08:45:27.138Z,2.87
2023-05-16T08:47:56.059Z,3.30
2023-05-16T08:50:23.490Z,2.60
2023-05-16T08:52:52.113Z,3.27
2023-05-16T08:55:21.632Z,3.53
2023-05-16T08:57:49.985Z,3.33
2023-05-16T09:00:17.867Z,3.10
2023-05-16T09:02:45.050Z,3.03
2023-05-16T09:05:12.989Z,3.00
2023-05-16T09:07:40.246Z,3.40
2023-05-16T09:10:07.745Z,3.00
2023-05-16T09:12:36.517Z,3.03
2023-05-16T09:15:04.182Z,3.17
2023-05-16T09:17:40.233Z,3.10
2023-05-16T09:20:12.479Z,2.50
2023-05-16T09:22:39.896Z,2.57
2023-05-16T09:25:10.620Z,6.13
2023-05-16T09:27:43.906Z,2.90
2023-05-16T09:30:11.358Z,2.90
2023-05-16T09:32:43.628Z,2.13
2023-05-16T09:35:11.730Z,2.17
2023-05-16T09:37:38.797Z,2.30
2023-05-16T09:40:06.677Z,2.10
2023-05-16T09:42:33.790Z,2.57
2023-05-16T09:45:05.460Z,2.80
2023-05-16T09:47:32.808Z,1.77
2023-05-16T09:50:00.940Z,1.90
2023-05-16T09:52:28.165Z,1.80
2023-05-16T09:54:55.482Z,2.77
2023-05-16T09:57:22.595Z,1.77
2023-05-16T09:59:50.498Z,1.90
2023-05-16T10:02:19.834Z,2.63
2023-05-16T10:04:47.132Z,2.13
2023-05-16T10:07:14.416Z,2.43
2023-05-16T10:09:41.613Z,2.60
2023-05-16T10:12:09.268Z,2.23
2023-05-16T10:14:37.092Z,2.23
2023-05-16T10:17:04.588Z,1.70
2023-05-16T10:19:35.169Z,1.90
2023-05-16T10:22:05.008Z,2.30
2023-05-16T10:24:37.076Z,1.87
2023-05-16T10:27:04.575Z,2.03
2023-05-16T10:29:40.015Z,2.53
2023-05-16T10:32:14.327Z,1.73
2023-05-16T10:34:42.856Z,2.10
2023-05-16T10:37:10.278Z,2.10
2023-05-16T10:39:38.516Z,2.67
2023-05-16T10:42:06.504Z,2.87
2023-05-16T10:44:33.989Z,2.63
2023-05-16T10:47:01.252Z,2.87
2023-05-16T10:49:28.436Z,2.10
2023-05-16T10:52:07.114Z,2.10
2023-05-16T10:54:35.213Z,2.30
2023-05-16T10:57:04.894Z,2.07
2023-05-16T10:59:40.058Z,2.17
2023-05-16T11:02:21.480Z,3.10
2023-05-16T11:04:49.577Z,2.43
2023-05-16T11:07:18.604Z,3.30
2023-05-16T11:09:45.934Z,2.83
2023-05-16T11:12:13.585Z,2.40
2023-05-16T11:14:41.842Z,2.93
2023-05-16T11:17:10.553Z,3.20
2023-05-16T11:19:41.446Z,3.00
2023-05-16T11:22:09.410Z,2.83
2023-05-16T11:24:38.307Z,3.33
2023-05-16T11:27:05.927Z,3.23
2023-05-16T11:29:33.741Z,3.37
2023-05-16T11:32:01.638Z,2.63
2023-05-16T11:34:30.133Z,2.27
2023-05-16T11:36:57.236Z,2.20
2023-05-16T11:39:24.379Z,2.20
2023-05-16T11:41:53.760Z,2.70
2023-05-16T11:44:20.952Z,2.70
2023-05-16T11:46:48.119Z,1.70
2023-05-16T11:49:15.232Z,1.57
2023-05-16T11:51:43.012Z,2.20
2023-05-16T11:54:10.393Z,2.67
2023-05-16T11:56:37.601Z,1.90
2023-05-16T11:59:06.080Z,2.70
2023-05-16T12:01:34.542Z,2.17
2023-05-16T12:04:02.061Z,1.93
2023-05-16T12:06:29.386Z,1.60
2023-05-16T12:08:56.499Z,1.80
2023-05-16T12:11:23.750Z,2.00
2023-05-16T12:13:51.081Z,1.80
2023-05-16T12:16:19.583Z,1.90
2023-05-16T12:18:46.906Z,1.53
2023-05-16T12:21:14.135Z,1.67
2023-05-16T12:23:42.733Z,2.40
2023-05-16T12:26:09.814Z,1.70
2023-05-16T12:28:36.936Z,1.53
2023-05-16T12:31:04.064Z,2.00
2023-05-16T12:33:37.826Z,2.10
2023-05-16T12:36:05.368Z,1.70
2023-05-16T12:38:32.449Z,2.33
2023-05-16T12:40:59.598Z,1.97
2023-05-16T12:43:26.726Z,1.70
2023-05-16T12:45:55.027Z,1.93
2023-05-16T12:48:22.764Z,3.20
2023-05-16T12:50:51.218Z,1.47
2023-05-16T12:53:18.861Z,1.63
2023-05-16T12:55:46.115Z,1.83
2023-05-16T12:58:13.324Z,1.77
2023-05-16T13:00:40.494Z,1.87
2023-05-16T13:03:07.968Z,1.67
2023-05-16T13:05:35.544Z,1.70
2023-05-16T13:08:04.154Z,1.40
2023-05-16T13:10:31.327Z,1.50
2023-05-16T13:12:58.507Z,1.77
2023-05-16T13:15:25.770Z,2.70
2023-05-16T13:17:53.195Z,1.43
2023-05-16T13:20:20.393Z,1.60
2023-05-16T13:22:47.485Z,1.50
2023-05-16T13:25:15.957Z,1.80
2023-05-16T13:27:43.097Z,1.70
2023-05-16T13:30:10.467Z,1.70
2023-05-16T13:32:38.994Z,1.50
2023-05-16T13:35:06.591Z,1.40
2023-05-16T13:37:33.707Z,2.07
2023-05-16T13:40:00.839Z,1.50
2023-05-16T13:42:29.301Z,1.53
2023-05-16T13:44:56.468Z,2.73
2023-05-16T13:47:23.635Z,1.60
2023-05-16T13:49:50.765Z,1.53
2023-05-16T13:52:18.046Z,1.60
2023-05-16T13:54:45.191Z,1.43
2023-05-16T13:57:12.454Z,1.20
2023-05-16T14:02:12.901Z,2.33
2023-05-16T14:04:39.996Z,2.80
2023-05-16T14:07:07.161Z,1.70
2023-05-16T14:09:34.418Z,1.30
2023-05-16T14:12:01.590Z,2.10
2023-05-16T14:14:28.786Z,2.03
2023-05-16T14:16:57.270Z,2.27
2023-05-16T14:19:24.470Z,1.83
2023-05-16T14:21:51.663Z,2.53
2023-05-16T14:24:18.818Z,1.77
2023-05-16T14:26:45.995Z,1.77
2023-05-16T14:29:13.138Z,1.73
2023-05-16T14:31:40.288Z,2.00
2023-05-16T14:34:08.761Z,1.73
2023-05-16T14:36:35.898Z,1.83
2023-05-16T14:39:02.980Z,1.90
2023-05-16T14:41:30.169Z,1.90
2023-05-16T14:43:57.312Z,2.00
2023-05-16T14:46:24.461Z,2.00
2023-05-16T14:48:51.684Z,1.90
2023-05-16T14:51:20.094Z,2.37
2023-05-16T14:53:47.296Z,2.00
2023-05-16T14:56:14.591Z,2.30
2023-05-16T14:58:41.695Z,1.67
2023-05-16T15:01:08.829Z,2.00
2023-05-16T15:03:53.803Z,1.70
2023-05-16T15:06:23.600Z,1.90
2023-05-16T15:08:50.832Z,2.30
2023-05-16T15:11:17.989Z,2.80
2023-05-16T15:13:45.122Z,2.20
2023-05-16T15:16:12.281Z,2.63
2023-05-16T15:18:39.456Z,2.87
2023-05-16T15:21:06.588Z,2.07
2023-05-16T15:23:34.994Z,2.40
2023-05-16T15:26:02.112Z,1.90
2023-05-16T15:28:29.178Z,2.40
2023-05-16T15:30:56.372Z,1.70
2023-05-16T15:33:23.482Z,2.33
2023-05-16T15:35:50.577Z,2.03
2023-05-16T15:38:17.654Z,2.40
2023-05-16T15:40:46.345Z,1.93
2023-05-16T15:43:13.487Z,2.40
2023-05-16T15:45:40.723Z,2.90
2023-05-16T15:48:08.006Z,1.97
2023-05-16T15:50:35.168Z,2.23
2023-05-16T15:53:02.294Z,2.17
2023-05-16T15:55:29.568Z,2.97
2023-05-16T15:57:58.320Z,2.70
2023-05-16T16:00:25.504Z,2.70
2023-05-16T16:02:52.806Z,2.60
2023-05-16T16:05:20.013Z,2.20
2023-05-16T16:07:47.102Z,2.00
2023-05-16T16:10:14.278Z,2.37
2023-05-16T16:12:41.438Z,2.83
2023-05-16T16:15:10.598Z,2.00
2023-05-16T16:17:37.846Z,2.00
2023-05-16T16:20:05.416Z,2.27
2023-05-16T16:22:32.521Z,2.57
2023-05-16T16:24:59.684Z,2.17
2023-05-16T16:27:26.797Z,2.07
2023-05-16T16:29:54.028Z,2.43
2023-05-16T16:32:22.767Z,2.50
2023-05-16T16:34:49.978Z,2.23
2023-05-16T16:37:17.070Z,2.80
2023-05-16T16:39:44.196Z,2.00
2023-05-16T16:42:11.358Z,2.17
2023-05-16T16:44:38.455Z,2.57
2023-05-16T16:47:05.847Z,1.80
2023-05-16T16:49:34.391Z,2.10
2023-05-16T16:52:01.501Z,2.57
2023-05-16T16:54:28.599Z,2.40
2023-05-16T16:56:56.553Z,2.10
2023-05-16T16:59:23.718Z,2.40
2023-05-16T17:01:51.146Z,2.20
2023-05-16T17:04:18.390Z,2.30
2023-05-16T17:06:48.668Z,2.13
2023-05-16T17:09:16.732Z,1.80
2023-05-16T17:11:44.092Z,2.27
2023-05-16T17:14:11.355Z,3.17
2023-05-16T17:16:38.821Z,3.20
2023-05-16T17:19:06.046Z,2.00
2023-05-16T17:21:33.431Z,2.67
2023-05-16T17:24:01.943Z,3.33
2023-05-16T17:26:29.045Z,2.33
2023-05-16T17:28:56.185Z,2.30
2023-05-16T17:31:23.319Z,2.50
2023-05-16T17:33:50.582Z,2.87
2023-05-16T17:36:17.706Z,2.70
2023-05-16T17:38:44.911Z,2.83
2023-05-16T17:41:13.321Z,2.37
2023-05-16T17:43:40.404Z,3.40
2023-05-16T17:46:07.514Z,3.10
2023-05-16T17:48:34.923Z,2.87
2023-05-16T17:51:02.061Z,2.73
2023-05-16T17:53:29.246Z,2.90
2023-05-16T17:55:56.301Z,2.83
2023-05-16T17:58:24.719Z,3.60
2023-05-16T18:00:51.824Z,3.27
2023-05-16T18:03:19.104Z,2.47
2023-05-16T18:05:46.300Z,2.77
2023-05-16T18:08:13.425Z,2.03
2023-05-16T18:10:51.113Z,2.67
2023-05-16T18:13:19.573Z,2.40
2023-05-16T18:15:48.004Z,2.93
2023-05-16T18:18:15.143Z,2.70
2023-05-16T18:20:42.272Z,2.70
2023-05-16T18:23:09.373Z,3.37
2023-05-16T18:25:36.458Z,2.10
2023-05-16T18:28:04.240Z,2.40
2023-05-16T18:30:31.376Z,2.20
2023-05-16T18:32:59.962Z,3.37
2023-05-16T18:35:27.403Z,2.33
2023-05-16T18:37:54.842Z,2.90
2023-05-16T18:40:21.980Z,2.40
2023-05-16T18:42:49.107Z,2.30
2023-05-16T18:45:16.222Z,2.77
2023-05-16T18:47:43.423Z,2.83
2023-05-16T18:50:11.959Z,2.83
2023-05-16T18:52:39.137Z,2.37
2023-05-16T18:55:06.637Z,2.60
2023-05-16T18:57:33.820Z,2.67
2023-05-16T19:00:00.917Z,3.30
2023-05-16T19:02:40.896Z,2.57
2023-05-16T19:05:09.482Z,3.00
2023-05-16T19:07:38.109Z,2.60
2023-05-16T19:10:05.547Z,2.27
2023-05-16T19:12:32.686Z,2.40
2023-05-16T19:14:59.834Z,2.37
2023-05-16T19:17:27.119Z,2.80
2023-05-16T19:19:54.320Z,2.40
2023-05-16T19:22:21.577Z,2.53
2023-05-16T19:24:50.010Z,2.30
2023-05-16T19:27:17.127Z,2.93
2023-05-16T19:29:44.187Z,2.90
2023-05-16T19:32:11.309Z,2.40
2023-05-16T19:34:38.552Z,2.13
2023-05-16T19:37:05.751Z,2.50
2023-05-16T19:39:32.879Z,2.93
2023-05-16T19:42:07.169Z,1.80
2023-05-16T19:44:35.103Z,2.50
2023-05-16T19:47:02.231Z,2.13
2023-05-16T19:49:31.551Z,2.50
2023-05-16T19:51:58.641Z,2.97
2023-05-16T19:54:25.789Z,2.17
2023-05-16T19:56:52.974Z,2.17
2023-05-16T19:59:21.420Z,2.00
2023-05-16T20:01:48.620Z,2.37
2023-05-16T20:04:15.887Z,3.50
2023-05-16T20:06:43.155Z,2.00
2023-05-16T20:09:10.334Z,3.17
2023-05-16T20:11:37.488Z,2.67
2023-05-16T20:14:04.580Z,2.13
2023-05-16T20:16:33.111Z,2.70
2023-05-16T20:19:00.321Z,2.57
2023-05-16T20:21:27.467Z,2.10
2023-05-16T20:23:54.559Z,2.27
2023-05-16T20:26:21.663Z,2.37
2023-05-16T20:28:48.816Z,2.50
2023-05-16T20:31:15.880Z,2.67
2023-05-16T20:33:44.339Z,2.20
2023-05-16T20:36:11.457Z,2.63
2023-05-16T20:38:38.722Z,3.13
2023-05-16T20:41:05.837Z,2.77
2023-05-16T20:43:32.990Z,3.33
2023-05-16T20:46:00.098Z,3.10
2023-05-16T20:48:27.328Z,3.10
2023-05-16T20:50:55.935Z,2.50
2023-05-16T20:53:23.535Z,2.47
2023-05-16T20:55:50.758Z,2.30
2023-05-16T20:58:17.944Z,2.30
2023-05-16T21:00:45.113Z,2.30
2023-05-16T21:03:12.218Z,3.33
2023-05-16T21:05:39.529Z,2.50
2023-05-16T21:08:08.281Z,2.60
2023-05-16T21:10:35.413Z,2.67
2023-05-16T21:13:02.511Z,2.57
2023-05-16T21:15:29.750Z,2.70
2023-05-16T21:17:57.207Z,3.00
2023-05-16T21:20:24.385Z,2.60
2023-05-16T21:22:51.542Z,2.40
2023-05-16T21:25:20.005Z,2.70
2023-05-16T21:27:47.152Z,2.40
2023-05-16T21:30:14.591Z,2.73
2023-05-16T21:32:41.704Z,3.10
2023-05-16T21:35:09.147Z,3.27
2023-05-16T21:37:36.230Z,2.50
2023-05-16T21:40:03.317Z,2.50
2023-05-16T21:42:31.790Z,3.70
2023-05-16T21:44:58.844Z,3.40
2023-05-16T21:47:26.008Z,2.93
2023-05-16T21:49:53.191Z,2.43
2023-05-16T21:52:20.317Z,3.40
2023-05-16T21:54:47.368Z,3.10
2023-05-16T21:57:14.435Z,3.00
2023-05-16T21:59:42.868Z,3.20
2023-05-16T22:02:09.921Z,3.07
2023-05-16T22:04:37.030Z,2.67
2023-05-16T22:07:04.202Z,3.00
2023-05-16T22:09:31.288Z,2.90
2023-05-16T22:11:58.386Z,2.93
2023-05-16T22:14:25.499Z,3.40
2023-05-16T22:16:53.943Z,3.27
2023-05-16T22:19:21.139Z,2.60
2023-05-16T22:21:48.287Z,3.77
2023-05-16T22:24:15.420Z,3.53
2023-05-16T22:26:42.556Z,3.67
2023-05-16T22:29:09.668Z,3.50
2023-05-16T22:31:36.766Z,3.07
2023-05-16T22:34:05.325Z,3.57
2023-05-16T22:36:32.536Z,2.93
2023-05-16T22:38:59.631Z,2.77
2023-05-16T22:41:26.766Z,2.90
2023-05-16T22:43:53.857Z,2.90
2023-05-16T22:46:21.053Z,3.30
2023-05-16T22:48:48.198Z,3.10
2023-05-16T22:51:16.664Z,3.40
2023-05-16T22:53:43.761Z,3.07
2023-05-16T22:56:10.885Z,3.50
2023-05-16T22:58:37.972Z,3.70
2023-05-16T23:01:05.186Z,4.27
2023-05-16T23:03:32.333Z,3.50
2023-05-16T23:05:59.496Z,4.43
2023-05-16T23:08:28.202Z,3.00
2023-05-16T23:10:55.308Z,4.17
2023-05-16T23:13:22.395Z,2.70
2023-05-16T23:15:49.595Z,2.83
2023-05-16T23:18:16.794Z,3.37
2023-05-16T23:20:43.922Z,3.30
2023-05-16T23:23:11.012Z,3.20
2023-05-16T23:25:39.603Z,3.57
2023-05-16T23:28:06.745Z,3.07
2023-05-16T23:30:33.852Z,3.27
2023-05-16T23:33:00.996Z,3.57
2023-05-16T23:35:28.311Z,3.60
2023-05-16T23:37:55.597Z,2.90
2023-05-16T23:40:22.701Z,3.00
2023-05-16T23:42:51.161Z,4.43
2023-05-16T23:45:18.325Z,3.80
2023-05-16T23:47:45.529Z,4.07
2023-05-16T23:50:12.742Z,3.40
2023-05-16T23:52:39.954Z,3.70
2023-05-16T23:55:07.613Z,3.03
2023-05-16T23:57:34.747Z,2.93
